createdAt,value
2022-11-01T00:00:32.245Z,27.00
2022-11-01T00:01:32.314Z,26.95
2022-11-01T00:02:32.308Z,26.95
2022-11-01T00:03:32.243Z,27.00
2022-11-01T00:04:32.248Z,27.04
2022-11-01T00:05:32.245Z,27.07
2022-11-01T00:06:32.245Z,26.95
2022-11-01T00:07:32.247Z,26.92
2022-11-01T00:08:32.244Z,27.02
2022-11-01T00:09:32.244Z,26.92
2022-11-01T00:10:32.248Z,26.92
2022-11-01T00:11:32.249Z,26.95
2022-11-01T00:12:32.246Z,26.95
2022-11-01T00:13:32.245Z,26.95
2022-11-01T00:14:32.245Z,26.92
2022-11-01T00:15:32.244Z,26.94
2022-11-01T00:16:32.246Z,26.95
2022-11-01T00:17:32.245Z,26.95
2022-11-01T00:18:32.268Z,26.89
2022-11-01T00:19:32.245Z,27.03
2022-11-01T00:20:32.248Z,26.95
2022-11-01T00:21:32.246Z,27.00
2022-11-01T00:22:32.246Z,26.95
2022-11-01T00:23:32.247Z,26.99
2022-11-01T00:24:32.247Z,26.87
2022-11-01T00:25:32.248Z,26.89
2022-11-01T00:26:32.248Z,26.89
2022-11-01T00:27:32.246Z,26.95
2022-11-01T00:28:32.249Z,26.94
2022-11-01T00:29:32.248Z,26.92
2022-11-01T00:30:32.247Z,26.94
2022-11-01T00:31:32.247Z,27.03
2022-11-01T00:32:32.248Z,26.92
2022-11-01T00:33:32.250Z,26.89
2022-11-01T00:34:32.270Z,26.89
2022-11-01T00:35:32.248Z,27.04
2022-11-01T00:36:32.249Z,26.95
2022-11-01T00:37:32.248Z,26.95
2022-11-01T00:38:32.254Z,26.92
2022-11-01T00:39:32.248Z,26.92
2022-11-01T00:40:32.251Z,27.02
2022-11-01T00:41:32.251Z,26.95
2022-11-01T00:42:32.249Z,26.95
2022-11-01T00:43:32.251Z,26.92
2022-11-01T00:44:32.251Z,26.89
2022-11-01T00:45:32.250Z,26.99
2022-11-01T00:46:32.253Z,26.92
2022-11-01T00:47:32.251Z,26.89
2022-11-01T00:48:32.250Z,26.91
2022-11-01T00:49:32.255Z,26.92
2022-11-01T00:50:32.271Z,27.00
2022-11-01T00:51:32.254Z,26.94
2022-11-01T00:52:32.253Z,26.95
2022-11-01T00:53:32.251Z,26.94
2022-11-01T00:54:32.251Z,26.97
2022-11-01T00:55:32.252Z,26.94
2022-11-01T00:56:32.251Z,26.92
2022-11-01T00:57:32.254Z,26.94
2022-11-01T00:58:32.251Z,26.99
2022-11-01T00:59:32.251Z,26.92
2022-11-01T01:00:32.255Z,26.99
2022-11-01T01:01:32.481Z,26.94
2022-11-01T01:02:32.387Z,26.92
2022-11-01T01:03:32.254Z,26.89
2022-11-01T01:04:32.257Z,26.94
2022-11-01T01:05:32.255Z,26.92
2022-11-01T01:06:32.274Z,26.97
2022-11-01T01:07:32.252Z,26.91
2022-11-01T01:08:32.269Z,26.99
2022-11-01T01:09:32.253Z,26.92
2022-11-01T01:10:32.259Z,26.92
2022-11-01T01:11:32.253Z,26.89
2022-11-01T01:12:32.254Z,26.97
2022-11-01T01:13:32.256Z,26.94
2022-11-01T01:14:32.681Z,26.94
2022-11-01T01:15:32.254Z,26.92
2022-11-01T01:16:32.304Z,26.89
2022-11-01T01:17:33.803Z,26.91
2022-11-01T01:18:32.257Z,26.94
2022-11-01T01:19:32.258Z,26.97
2022-11-01T01:20:32.258Z,27.02
2022-11-01T01:21:32.254Z,26.89
2022-11-01T01:22:32.279Z,26.95
2022-11-01T01:23:32.259Z,26.97
2022-11-01T01:24:32.261Z,26.91
2022-11-01T01:25:32.258Z,26.97
2022-11-01T01:26:32.257Z,26.97
2022-11-01T01:27:32.256Z,26.99
2022-11-01T01:28:32.258Z,26.95
2022-11-01T01:29:32.258Z,26.89
2022-11-01T01:30:32.256Z,26.94
2022-11-01T01:31:32.257Z,26.89
2022-11-01T01:32:32.257Z,26.91
2022-11-01T01:33:32.258Z,26.95
2022-11-01T01:34:32.259Z,26.92
2022-11-01T01:35:32.256Z,26.94
2022-11-01T01:36:32.259Z,26.95
2022-11-01T01:37:32.258Z,26.95
2022-11-01T01:38:32.279Z,26.91
2022-11-01T01:39:32.258Z,26.97
2022-11-01T01:40:32.258Z,26.89
2022-11-01T01:41:32.257Z,26.95
2022-11-01T01:42:32.265Z,26.88
2022-11-01T01:43:32.258Z,26.94
2022-11-01T01:44:32.260Z,26.92
2022-11-01T01:45:32.260Z,26.87
2022-11-01T01:46:32.258Z,26.87
2022-11-01T01:47:32.261Z,26.99
2022-11-01T01:48:32.260Z,26.89
2022-11-01T01:49:32.362Z,26.89
2022-11-01T01:50:32.259Z,26.94
2022-11-01T01:51:32.260Z,26.97
2022-11-01T01:52:32.263Z,26.94
2022-11-01T01:53:32.263Z,26.92
2022-11-01T01:54:32.283Z,26.95
2022-11-01T01:55:32.259Z,26.87
2022-11-01T01:56:32.416Z,26.91
2022-11-01T01:57:32.260Z,26.89
2022-11-01T01:58:32.260Z,26.94
2022-11-01T01:59:32.260Z,26.87
2022-11-01T02:00:32.262Z,26.99
2022-11-01T02:01:32.423Z,26.92
2022-11-01T02:02:32.262Z,26.94
2022-11-01T02:03:32.263Z,26.89
2022-11-01T02:04:32.262Z,26.89
2022-11-01T02:05:32.262Z,26.99
2022-11-01T02:06:32.263Z,27.00
2022-11-01T02:07:32.260Z,26.91
2022-11-01T02:08:32.264Z,26.92
2022-11-01T02:09:32.262Z,26.92
2022-11-01T02:10:32.292Z,26.91
2022-11-01T02:11:32.263Z,26.92
2022-11-01T02:12:32.263Z,26.89
2022-11-01T02:13:32.263Z,26.97
2022-11-01T02:14:32.262Z,26.89
2022-11-01T02:15:32.262Z,27.00
2022-11-01T02:16:32.262Z,26.89
2022-11-01T02:17:32.262Z,26.94
2022-11-01T02:18:32.263Z,27.00
2022-11-01T02:19:32.264Z,26.92
2022-11-01T02:20:32.265Z,26.88
2022-11-01T02:21:32.264Z,26.92
2022-11-01T02:22:32.304Z,26.97
2022-11-01T02:23:32.264Z,26.87
2022-11-01T02:24:32.265Z,27.00
2022-11-01T02:25:32.263Z,27.00
2022-11-01T02:26:32.285Z,26.87
2022-11-01T02:27:32.264Z,26.92
2022-11-01T02:28:32.265Z,26.92
2022-11-01T02:29:32.265Z,27.00
2022-11-01T02:30:32.265Z,27.00
2022-11-01T02:31:32.269Z,26.97
2022-11-01T02:32:32.267Z,26.89
2022-11-01T02:33:32.264Z,26.91
2022-11-01T02:34:32.265Z,27.00
2022-11-01T02:35:32.265Z,26.89
2022-11-01T02:36:32.266Z,26.97
2022-11-01T02:37:32.267Z,26.91
2022-11-01T02:38:32.267Z,26.97
2022-11-01T02:39:32.266Z,26.91
2022-11-01T02:40:32.269Z,26.91
2022-11-01T02:41:32.266Z,26.94
2022-11-01T02:42:32.294Z,26.97
2022-11-01T02:43:32.267Z,26.89
2022-11-01T02:44:32.267Z,26.88
2022-11-01T02:45:32.269Z,26.89
2022-11-01T02:46:32.268Z,26.94
2022-11-01T02:47:32.266Z,26.99
2022-11-01T02:48:32.268Z,26.99
2022-11-01T02:49:32.267Z,26.95
2022-11-01T02:50:32.268Z,26.92
2022-11-01T02:51:32.266Z,26.94
2022-11-01T02:52:32.270Z,26.97
2022-11-01T02:53:32.268Z,26.91
2022-11-01T02:54:32.268Z,26.95
2022-11-01T02:55:32.292Z,26.89
2022-11-01T02:56:32.269Z,26.95
2022-11-01T02:57:32.268Z,26.95
2022-11-01T02:58:32.292Z,26.94
2022-11-01T02:59:32.270Z,26.88
2022-11-01T03:00:32.269Z,26.91
2022-11-01T03:01:32.390Z,26.89
2022-11-01T03:02:32.268Z,26.97
2022-11-01T03:03:32.271Z,26.94
2022-11-01T03:04:32.274Z,27.03
2022-11-01T03:05:32.269Z,27.00
2022-11-01T03:06:32.271Z,26.91
2022-11-01T03:07:32.271Z,26.92
2022-11-01T03:08:32.272Z,26.97
2022-11-01T03:09:32.270Z,27.00
2022-11-01T03:10:32.270Z,26.94
2022-11-01T03:11:32.270Z,26.94
2022-11-01T03:12:32.273Z,26.91
2022-11-01T03:13:32.271Z,26.99
2022-11-01T03:14:32.301Z,26.95
2022-11-01T03:15:32.270Z,26.99
2022-11-01T03:16:32.271Z,26.94
2022-11-01T03:17:32.272Z,27.00
2022-11-01T03:18:32.270Z,26.94
2022-11-01T03:19:32.272Z,26.94
2022-11-01T03:20:32.274Z,26.91
2022-11-01T03:21:32.271Z,26.94
2022-11-01T03:22:32.275Z,26.95
2022-11-01T03:23:32.271Z,26.94
2022-11-01T03:24:32.274Z,26.91
2022-11-01T03:25:32.281Z,26.95
2022-11-01T03:26:32.272Z,26.95
2022-11-01T03:27:32.273Z,26.95
2022-11-01T03:28:32.272Z,26.92
2022-11-01T03:29:32.273Z,26.94
2022-11-01T03:30:32.305Z,26.85
2022-11-01T03:31:32.273Z,26.95
2022-11-01T03:32:32.273Z,26.94
2022-11-01T03:33:32.273Z,26.97
2022-11-01T03:34:32.272Z,26.95
2022-11-01T03:35:32.274Z,26.94
2022-11-01T03:36:32.275Z,26.92
2022-11-01T03:37:32.275Z,26.94
2022-11-01T03:38:32.278Z,26.94
2022-11-01T03:39:32.277Z,27.00
2022-11-01T03:40:32.274Z,26.95
2022-11-01T03:41:32.276Z,26.95
2022-11-01T03:42:32.274Z,26.95
2022-11-01T03:43:32.295Z,26.99
2022-11-01T03:44:32.276Z,26.92
2022-11-01T03:45:32.277Z,26.97
2022-11-01T03:46:32.295Z,26.99
2022-11-01T03:47:32.275Z,26.94
2022-11-01T03:48:32.276Z,26.92
2022-11-01T03:49:32.276Z,26.94
2022-11-01T03:50:32.276Z,27.02
2022-11-01T03:51:32.276Z,26.94
2022-11-01T03:52:32.277Z,26.92
2022-11-01T03:53:32.278Z,26.99
2022-11-01T03:54:32.274Z,26.87
2022-11-01T03:55:32.278Z,26.92
2022-11-01T03:56:32.276Z,26.99
2022-11-01T03:57:32.278Z,26.95
2022-11-01T03:58:32.275Z,26.95
2022-11-01T03:59:32.278Z,26.92
2022-11-01T04:00:32.281Z,26.91
2022-11-01T04:01:32.426Z,26.95
2022-11-01T04:02:32.299Z,27.03
2022-11-01T04:03:32.277Z,26.95
2022-11-01T04:04:32.278Z,26.91
2022-11-01T04:05:32.277Z,26.92
2022-11-01T04:06:32.277Z,26.92
2022-11-01T04:07:32.281Z,26.94
2022-11-01T04:08:32.276Z,27.00
2022-11-01T04:09:32.278Z,26.89
2022-11-01T04:10:32.277Z,26.95
2022-11-01T04:11:32.279Z,26.89
2022-11-01T04:12:32.279Z,26.89
2022-11-01T04:13:32.282Z,26.89
2022-11-01T04:14:32.278Z,26.94
2022-11-01T04:15:32.278Z,26.88
2022-11-01T04:16:32.278Z,26.92
2022-11-01T04:17:32.282Z,26.89
2022-11-01T04:18:32.362Z,26.94
2022-11-01T04:19:32.278Z,26.94
2022-11-01T04:20:32.280Z,26.89
2022-11-01T04:21:32.280Z,26.95
2022-11-01T04:22:32.277Z,26.95
2022-11-01T04:23:32.279Z,26.94
2022-11-01T04:24:32.283Z,26.92
2022-11-01T04:25:32.283Z,26.94
2022-11-01T04:26:32.278Z,27.00
2022-11-01T04:27:32.280Z,26.95
2022-11-01T04:28:32.286Z,26.99
2022-11-01T04:29:32.284Z,26.92
2022-11-01T04:30:32.282Z,26.97
2022-11-01T04:31:32.293Z,26.89
2022-11-01T04:32:32.280Z,26.95
2022-11-01T04:33:32.282Z,26.95
2022-11-01T04:34:32.305Z,26.88
2022-11-01T04:35:32.280Z,26.87
2022-11-01T04:36:32.281Z,26.89
2022-11-01T04:37:32.281Z,27.00
2022-11-01T04:38:32.281Z,26.95
2022-11-01T04:39:32.283Z,26.92
2022-11-01T04:40:32.281Z,26.89
2022-11-01T04:41:32.285Z,26.94
2022-11-01T04:42:32.284Z,26.95
2022-11-01T04:43:32.282Z,26.99
2022-11-01T04:44:32.285Z,26.94
2022-11-01T04:45:32.283Z,26.92
2022-11-01T04:46:32.281Z,26.95
2022-11-01T04:47:32.282Z,26.97
2022-11-01T04:48:32.282Z,26.97
2022-11-01T04:49:32.283Z,26.94
2022-11-01T04:50:32.305Z,26.97
2022-11-01T04:51:32.351Z,26.95
2022-11-01T04:52:32.282Z,26.94
2022-11-01T04:53:32.284Z,26.94
2022-11-01T04:54:32.283Z,26.92
2022-11-01T04:55:32.283Z,26.94
2022-11-01T04:56:32.284Z,26.91
2022-11-01T04:57:32.285Z,26.95
2022-11-01T04:58:32.285Z,26.95
2022-11-01T04:59:32.295Z,26.88
2022-11-01T05:00:32.285Z,26.94
2022-11-01T05:01:32.416Z,26.95
2022-11-01T05:02:32.284Z,26.92
2022-11-01T05:03:32.284Z,26.95
2022-11-01T05:04:32.284Z,26.92
2022-11-01T05:05:32.287Z,26.92
2022-11-01T05:06:32.305Z,26.91
2022-11-01T05:07:32.286Z,26.95
2022-11-01T05:08:32.284Z,26.97
2022-11-01T05:09:32.285Z,26.95
2022-11-01T05:10:32.284Z,26.92
2022-11-01T05:11:32.286Z,26.94
2022-11-01T05:12:32.286Z,26.92
2022-11-01T05:13:32.286Z,26.89
2022-11-01T05:14:32.284Z,26.92
2022-11-01T05:15:32.285Z,26.92
2022-11-01T05:16:32.285Z,26.92
2022-11-01T05:17:32.287Z,26.92
2022-11-01T05:18:32.286Z,26.91
2022-11-01T05:19:32.295Z,26.95
2022-11-01T05:20:32.285Z,26.89
2022-11-01T05:21:32.288Z,26.97
2022-11-01T05:22:32.306Z,26.97
2022-11-01T05:23:32.288Z,26.94
2022-11-01T05:24:32.367Z,26.99
2022-11-01T05:25:34.031Z,26.92
2022-11-01T05:26:32.286Z,26.97
2022-11-01T05:27:32.289Z,26.94
2022-11-01T05:28:32.287Z,26.92
2022-11-01T05:29:33.273Z,26.94
2022-11-01T05:30:32.285Z,27.00
2022-11-01T05:31:32.287Z,26.91
2022-11-01T05:32:32.286Z,26.97
2022-11-01T05:33:32.289Z,26.91
2022-11-01T05:34:32.285Z,26.91
2022-11-01T05:35:32.289Z,26.92
2022-11-01T05:36:32.286Z,26.99
2022-11-01T05:37:32.297Z,26.97
2022-11-01T05:38:32.310Z,26.95
2022-11-01T05:39:32.291Z,26.91
2022-11-01T05:40:32.289Z,26.95
2022-11-01T05:41:32.288Z,26.91
2022-11-01T05:42:32.287Z,26.91
2022-11-01T05:43:32.289Z,26.95
2022-11-01T05:44:32.292Z,26.87
2022-11-01T05:45:32.288Z,26.95
2022-11-01T05:46:32.287Z,26.91
2022-11-01T05:47:32.291Z,26.92
2022-11-01T05:48:32.288Z,26.94
2022-11-01T05:49:32.292Z,26.97
2022-11-01T05:50:32.288Z,26.94
2022-11-01T05:51:32.289Z,26.92
2022-11-01T05:52:32.288Z,26.92
2022-11-01T05:53:32.292Z,26.97
2022-11-01T05:54:32.310Z,26.97
2022-11-01T05:55:32.290Z,26.97
2022-11-01T05:56:32.440Z,26.89
2022-11-01T05:57:33.557Z,26.97
2022-11-01T05:58:32.288Z,26.91
2022-11-01T05:59:32.290Z,26.91
2022-11-01T06:00:32.293Z,27.02
2022-11-01T06:01:32.362Z,26.95
2022-11-01T06:02:32.340Z,26.91
2022-11-01T06:03:32.290Z,26.94
2022-11-01T06:04:32.292Z,26.99
2022-11-01T06:05:32.293Z,27.02
2022-11-01T06:06:32.289Z,27.06
2022-11-01T06:07:32.292Z,27.10
2022-11-01T06:08:32.289Z,27.04
2022-11-01T06:09:32.295Z,27.03
2022-11-01T06:10:32.313Z,27.06
2022-11-01T06:11:32.292Z,27.10
2022-11-01T06:12:32.292Z,27.09
2022-11-01T06:13:32.292Z,27.07
2022-11-01T06:14:32.377Z,27.17
2022-11-01T06:15:34.456Z,27.13
2022-11-01T06:16:32.298Z,27.14
2022-11-01T06:17:32.292Z,27.12
2022-11-01T06:18:32.291Z,27.19
2022-11-01T06:19:32.295Z,27.12
2022-11-01T06:20:32.294Z,27.12
2022-11-01T06:21:32.295Z,27.09
2022-11-01T06:22:32.294Z,27.13
2022-11-01T06:23:32.294Z,27.13
2022-11-01T06:24:32.293Z,27.13
2022-11-01T06:25:32.297Z,27.14
2022-11-01T06:26:32.317Z,27.18
2022-11-01T06:27:32.296Z,27.24
2022-11-01T06:28:32.298Z,27.22
2022-11-01T06:29:32.295Z,27.22
2022-11-01T06:30:32.295Z,27.22
2022-11-01T06:31:32.298Z,27.28
2022-11-01T06:32:32.295Z,27.18
2022-11-01T06:33:32.309Z,27.24
2022-11-01T06:34:32.298Z,27.21
2022-11-01T06:35:32.296Z,27.18
2022-11-01T06:36:32.297Z,27.28
2022-11-01T06:37:32.297Z,27.18
2022-11-01T06:38:32.298Z,27.29
2022-11-01T06:39:32.299Z,27.28
2022-11-01T06:40:32.298Z,27.27
2022-11-01T06:41:32.300Z,27.28
2022-11-01T06:42:32.317Z,27.24
2022-11-01T06:43:32.299Z,27.29
2022-11-01T06:44:32.300Z,27.25
2022-11-01T06:45:32.302Z,27.29
2022-11-01T06:46:32.303Z,27.31
2022-11-01T06:47:32.362Z,27.32
2022-11-01T06:48:32.300Z,27.29
2022-11-01T06:49:32.301Z,27.32
2022-11-01T06:50:32.300Z,27.34
2022-11-01T06:51:32.305Z,27.31
2022-11-01T06:52:32.304Z,27.36
2022-11-01T06:53:32.305Z,27.28
2022-11-01T06:54:32.309Z,27.32
2022-11-01T06:55:32.303Z,27.36
2022-11-01T06:56:32.455Z,27.37
2022-11-01T06:57:32.308Z,27.29
2022-11-01T06:58:32.324Z,27.41
2022-11-01T06:59:32.306Z,27.36
2022-11-01T07:00:32.304Z,27.41
2022-11-01T07:01:32.475Z,27.39
2022-11-01T07:02:32.491Z,27.40
2022-11-01T07:03:32.309Z,27.32
2022-11-01T07:04:32.307Z,27.43
2022-11-01T07:05:35.956Z,27.43
2022-11-01T07:06:32.311Z,27.43
2022-11-01T07:07:32.309Z,27.40
2022-11-01T07:08:32.309Z,27.40
2022-11-01T07:09:32.309Z,27.44
2022-11-01T07:10:32.308Z,27.40
2022-11-01T07:11:32.321Z,27.41
2022-11-01T07:12:32.309Z,27.44
2022-11-01T07:13:32.312Z,27.41
2022-11-01T07:14:32.344Z,27.49
2022-11-01T07:15:32.310Z,27.40
2022-11-01T07:16:32.314Z,27.43
2022-11-01T07:17:32.313Z,27.34
2022-11-01T07:18:32.312Z,27.44
2022-11-01T07:19:32.313Z,27.46
2022-11-01T07:20:32.379Z,27.47
2022-11-01T07:21:32.314Z,27.54
2022-11-01T07:22:32.312Z,27.50
2022-11-01T07:23:32.316Z,27.55
2022-11-01T07:24:32.315Z,27.62
2022-11-01T07:25:32.315Z,27.54
2022-11-01T07:26:32.314Z,27.50
2022-11-01T07:27:32.316Z,27.59
2022-11-01T07:28:32.317Z,27.49
2022-11-01T07:29:32.318Z,27.55
2022-11-01T07:30:32.336Z,27.55
2022-11-01T07:31:32.318Z,27.57
2022-11-01T07:32:34.204Z,27.55
2022-11-01T07:33:32.321Z,27.55
2022-11-01T07:34:32.319Z,27.57
2022-11-01T07:35:32.319Z,27.55
2022-11-01T07:36:32.319Z,27.50
2022-11-01T07:37:32.323Z,27.57
2022-11-01T07:38:32.320Z,27.65
2022-11-01T07:39:32.323Z,27.63
2022-11-01T07:40:32.322Z,27.69
2022-11-01T07:41:32.323Z,27.59
2022-11-01T07:42:32.322Z,27.60
2022-11-01T07:43:32.324Z,27.62
2022-11-01T07:44:32.325Z,27.60
2022-11-01T07:45:32.324Z,27.63
2022-11-01T07:46:32.357Z,27.70
2022-11-01T07:47:32.326Z,27.65
2022-11-01T07:48:32.326Z,27.69
2022-11-01T07:49:32.328Z,27.66
2022-11-01T07:50:32.325Z,27.66
2022-11-01T07:51:32.326Z,27.67
2022-11-01T07:52:32.329Z,27.65
2022-11-01T07:53:32.329Z,27.67
2022-11-01T07:54:32.329Z,27.62
2022-11-01T07:55:32.330Z,27.75
2022-11-01T07:56:32.334Z,27.67
2022-11-01T07:57:32.331Z,27.69
2022-11-01T07:58:32.332Z,27.84
2022-11-01T07:59:32.331Z,27.67
2022-11-01T08:00:32.389Z,27.70
2022-11-01T08:01:32.535Z,27.74
2022-11-01T08:02:32.396Z,27.75
2022-11-01T08:03:32.333Z,27.75
2022-11-01T08:04:32.335Z,27.72
2022-11-01T08:05:32.337Z,27.74
2022-11-01T08:06:32.338Z,27.70
2022-11-01T08:07:32.336Z,27.75
2022-11-01T08:08:32.339Z,27.75
2022-11-01T08:09:32.338Z,27.79
2022-11-01T08:10:32.340Z,27.78
2022-11-01T08:11:32.341Z,27.75
2022-11-01T08:12:32.341Z,27.82
2022-11-01T08:13:32.342Z,27.74
2022-11-01T08:14:32.343Z,27.75
2022-11-01T08:15:32.342Z,27.78
2022-11-01T08:16:32.345Z,27.81
2022-11-01T08:17:32.344Z,27.77
2022-11-01T08:18:32.375Z,27.77
2022-11-01T08:19:32.343Z,27.78
2022-11-01T08:20:32.348Z,27.81
2022-11-01T08:21:32.345Z,27.84
2022-11-01T08:22:32.367Z,27.81
2022-11-01T08:23:32.345Z,27.84
2022-11-01T08:24:32.349Z,27.78
2022-11-01T08:25:32.354Z,27.88
2022-11-01T08:26:32.350Z,27.88
2022-11-01T08:27:34.440Z,27.72
2022-11-01T08:28:32.350Z,27.84
2022-11-01T08:29:32.352Z,27.88
2022-11-01T08:30:32.353Z,27.93
2022-11-01T08:31:32.359Z,27.79
2022-11-01T08:32:32.353Z,27.93
2022-11-01T08:33:32.354Z,27.84
2022-11-01T08:34:32.376Z,27.87
2022-11-01T08:35:32.354Z,27.88
2022-11-01T08:36:32.356Z,27.75
2022-11-01T08:37:32.357Z,27.99
2022-11-01T08:38:32.356Z,27.92
2022-11-01T08:39:32.359Z,27.82
2022-11-01T08:40:32.358Z,27.84
2022-11-01T08:41:36.604Z,27.93
2022-11-01T08:42:32.362Z,27.85
2022-11-01T08:43:34.414Z,27.82
2022-11-01T08:44:32.360Z,27.84
2022-11-01T08:45:32.362Z,27.81
2022-11-01T08:46:32.361Z,27.93
2022-11-01T08:47:32.364Z,27.88
2022-11-01T08:48:32.365Z,27.87
2022-11-01T08:49:32.363Z,27.87
2022-11-01T08:50:32.387Z,27.96
2022-11-01T08:51:32.364Z,27.87
2022-11-01T08:52:32.368Z,27.93
2022-11-01T08:53:32.371Z,27.92
2022-11-01T08:54:32.368Z,27.93
2022-11-01T08:55:37.208Z,27.88
2022-11-01T08:56:32.370Z,27.93
2022-11-01T08:57:32.369Z,28.02
2022-11-01T08:58:32.371Z,27.92
2022-11-01T08:59:32.370Z,27.97
2022-11-01T09:00:32.373Z,27.92
2022-11-01T09:01:32.572Z,27.92
2022-11-01T09:02:32.409Z,27.94
2022-11-01T09:03:32.373Z,27.96
2022-11-01T09:04:32.375Z,27.97
2022-11-01T09:05:32.374Z,27.96
2022-11-01T09:06:36.202Z,27.93
2022-11-01T09:07:32.376Z,27.93
2022-11-01T09:08:32.379Z,27.93
2022-11-01T09:09:32.379Z,27.93
2022-11-01T09:10:32.378Z,27.93
2022-11-01T09:11:32.382Z,27.87
2022-11-01T09:12:32.443Z,27.93
2022-11-01T09:13:32.383Z,27.90
2022-11-01T09:14:32.382Z,27.85
2022-11-01T09:15:32.382Z,28.00
2022-11-01T09:16:32.385Z,27.90
2022-11-01T09:17:32.383Z,28.03
2022-11-01T09:18:32.384Z,27.85
2022-11-01T09:19:32.384Z,27.90
2022-11-01T09:20:32.387Z,27.96
2022-11-01T09:21:32.387Z,27.96
2022-11-01T09:22:32.414Z,27.92
2022-11-01T09:23:32.388Z,27.93
2022-11-01T09:24:32.392Z,27.88
2022-11-01T09:25:32.390Z,27.87
2022-11-01T09:26:32.391Z,27.90
2022-11-01T09:27:32.393Z,28.00
2022-11-01T09:28:33.938Z,27.93
2022-11-01T09:30:32.404Z,27.99
2022-11-01T09:31:32.397Z,28.06
2022-11-01T09:32:32.396Z,28.02
2022-11-01T09:33:32.402Z,28.14
2022-11-01T09:34:32.397Z,28.11
2022-11-01T09:35:32.399Z,28.02
2022-11-01T09:36:32.399Z,28.07
2022-11-01T09:37:32.402Z,28.06
2022-11-01T09:38:32.422Z,28.11
2022-11-01T09:39:32.401Z,28.07
2022-11-01T09:40:32.401Z,28.09
2022-11-01T09:41:32.403Z,28.12
2022-11-01T09:42:32.419Z,28.09
2022-11-01T09:43:32.407Z,28.11
2022-11-01T09:44:32.405Z,28.11
2022-11-01T09:45:32.405Z,28.04
2022-11-01T09:46:32.407Z,28.09
2022-11-01T09:47:32.408Z,28.09
2022-11-01T09:48:32.409Z,28.00
2022-11-01T09:49:32.409Z,28.11
2022-11-01T09:50:32.411Z,28.12
2022-11-01T09:51:32.409Z,28.15
2022-11-01T09:52:32.411Z,28.06
2022-11-01T09:53:32.415Z,28.12
2022-11-01T09:54:32.432Z,28.21
2022-11-01T09:55:32.412Z,28.14
2022-11-01T09:56:32.414Z,28.12
2022-11-01T09:57:32.415Z,28.19
2022-11-01T09:58:32.419Z,28.18
2022-11-01T09:59:32.416Z,28.18
2022-11-01T10:00:32.418Z,28.18
2022-11-01T10:01:32.582Z,28.12
2022-11-01T10:02:32.419Z,28.15
2022-11-01T10:03:32.426Z,28.22
2022-11-01T10:04:32.422Z,28.04
2022-11-01T10:05:32.440Z,28.14
2022-11-01T10:06:32.422Z,28.17
2022-11-01T10:07:32.426Z,28.14
2022-11-01T10:08:32.428Z,28.14
2022-11-01T10:09:32.426Z,28.14
2022-11-01T10:10:35.671Z,28.18
2022-11-01T10:11:32.426Z,28.15
2022-11-01T10:12:32.427Z,28.18
2022-11-01T10:13:32.427Z,28.15
2022-11-01T10:14:32.430Z,28.19
2022-11-01T10:15:32.430Z,28.18
2022-11-01T10:16:32.434Z,28.21
2022-11-01T10:17:32.432Z,28.22
2022-11-01T10:18:32.433Z,28.22
2022-11-01T10:19:32.432Z,28.22
2022-11-01T10:20:32.436Z,28.22
2022-11-01T10:21:32.437Z,28.17
2022-11-01T10:22:32.437Z,28.24
2022-11-01T10:23:32.436Z,28.17
2022-11-01T10:24:32.439Z,28.24
2022-11-01T10:25:32.441Z,28.25
2022-11-01T10:26:32.461Z,28.24
2022-11-01T10:27:36.260Z,28.34
2022-11-01T10:28:32.444Z,28.34
2022-11-01T10:29:32.442Z,28.29
2022-11-01T10:30:32.448Z,28.29
2022-11-01T10:31:32.444Z,28.34
2022-11-01T10:32:32.447Z,28.39
2022-11-01T10:33:32.448Z,28.34
2022-11-01T10:34:35.976Z,28.31
2022-11-01T10:35:32.446Z,28.27
2022-11-01T10:36:32.494Z,28.27
2022-11-01T10:37:32.450Z,28.30
2022-11-01T10:38:59.182Z,28.33
2022-11-01T10:40:32.453Z,28.30
2022-11-01T10:41:32.455Z,28.29
2022-11-01T10:42:32.486Z,28.41
2022-11-01T10:43:32.455Z,28.33
2022-11-01T10:44:32.458Z,28.30
2022-11-01T10:45:32.457Z,28.36
2022-11-01T10:46:32.460Z,28.43
2022-11-01T10:47:32.457Z,28.39
2022-11-01T10:48:32.470Z,28.39
2022-11-01T10:49:52.948Z,28.31
2022-11-01T10:50:32.462Z,28.44
2022-11-01T10:51:32.462Z,28.37
2022-11-01T10:52:32.471Z,28.41
2022-11-01T10:53:32.464Z,28.40
2022-11-01T10:54:32.465Z,28.37
2022-11-01T10:55:32.469Z,28.49
2022-11-01T10:56:32.497Z,28.49
2022-11-01T10:57:32.470Z,28.44
2022-11-01T10:58:32.500Z,28.41
2022-11-01T10:59:32.470Z,28.37
2022-11-01T11:00:32.473Z,28.54
2022-11-01T11:01:32.683Z,28.41
2022-11-01T11:02:32.583Z,28.44
2022-11-01T11:03:32.486Z,28.48
2022-11-01T11:04:32.476Z,28.43
2022-11-01T11:05:32.478Z,28.43
2022-11-01T11:06:32.480Z,28.51
2022-11-01T11:07:32.478Z,28.46
2022-11-01T11:08:32.484Z,28.61
2022-11-01T11:09:32.484Z,28.58
2022-11-01T11:10:32.480Z,28.59
2022-11-01T11:11:32.481Z,28.58
2022-11-01T11:12:32.497Z,28.59
2022-11-01T11:13:32.483Z,28.58
2022-11-01T11:14:32.517Z,28.61
2022-11-01T11:15:35.491Z,28.51
2022-11-01T11:16:32.487Z,28.59
2022-11-01T11:17:32.493Z,28.46
2022-11-01T11:18:32.489Z,28.41
2022-11-01T11:19:32.489Z,28.49
2022-11-01T11:20:32.501Z,28.48
2022-11-01T11:21:32.491Z,28.48
2022-11-01T11:22:32.511Z,28.49
2022-11-01T11:23:32.520Z,28.52
2022-11-01T11:24:32.494Z,28.39
2022-11-01T11:25:32.495Z,28.41
2022-11-01T11:26:36.174Z,28.49
2022-11-01T11:27:32.496Z,28.39
2022-11-01T11:28:32.501Z,28.44
2022-11-01T11:29:32.504Z,28.49
2022-11-01T11:30:32.523Z,28.46
2022-11-01T11:31:32.501Z,28.40
2022-11-01T11:32:32.506Z,28.40
2022-11-01T11:33:32.503Z,28.34
2022-11-01T11:34:32.508Z,28.43
2022-11-01T11:35:32.504Z,28.41
2022-11-01T11:36:32.508Z,28.51
2022-11-01T11:37:32.512Z,28.44
2022-11-01T11:38:32.509Z,28.40
2022-11-01T11:39:32.510Z,28.39
2022-11-01T11:40:32.511Z,28.46
2022-11-01T11:41:32.510Z,28.48
2022-11-01T11:42:32.512Z,28.43
2022-11-01T11:43:32.514Z,28.48
2022-11-01T11:44:32.515Z,28.46
2022-11-01T11:45:32.516Z,28.48
2022-11-01T11:46:32.542Z,28.43
2022-11-01T11:47:32.517Z,28.43
2022-11-01T11:48:32.522Z,28.36
2022-11-01T11:49:32.521Z,28.40
2022-11-01T11:50:32.536Z,28.46
2022-11-01T11:51:32.520Z,28.49
2022-11-01T11:52:37.783Z,28.48
2022-11-01T11:53:32.524Z,28.52
2022-11-01T11:54:32.528Z,28.39
2022-11-01T11:55:32.525Z,28.49
2022-11-01T11:56:32.529Z,28.41
2022-11-01T11:57:32.526Z,28.37
2022-11-01T11:58:32.528Z,28.40
2022-11-01T11:59:32.613Z,28.31
2022-11-01T12:00:32.531Z,28.29
2022-11-01T12:01:32.635Z,28.27
2022-11-01T12:02:32.654Z,28.34
2022-11-01T12:03:32.532Z,28.30
2022-11-01T12:04:32.539Z,28.24
2022-11-01T12:05:32.534Z,28.27
2022-11-01T12:06:32.535Z,28.22
2022-11-01T12:07:32.538Z,28.21
2022-11-01T12:08:32.537Z,28.21
2022-11-01T12:09:32.539Z,28.24
2022-11-01T12:10:32.546Z,28.24
2022-11-01T12:11:32.541Z,28.14
2022-11-01T12:12:32.542Z,28.12
2022-11-01T12:13:32.544Z,28.18
2022-11-01T12:14:32.542Z,28.09
2022-11-01T12:15:35.767Z,28.03
2022-11-01T12:16:32.548Z,28.03
2022-11-01T12:17:32.547Z,28.07
2022-11-01T12:18:32.569Z,27.94
2022-11-01T12:19:32.548Z,27.96
2022-11-01T12:20:32.550Z,27.93
2022-11-01T12:21:32.549Z,27.94
2022-11-01T12:22:32.549Z,27.94
2022-11-01T12:23:32.550Z,27.97
2022-11-01T12:24:32.551Z,27.94
2022-11-01T12:25:32.555Z,27.97
2022-11-01T12:26:32.553Z,27.88
2022-11-01T12:27:32.555Z,27.99
2022-11-01T12:28:32.554Z,27.92
2022-11-01T12:29:32.557Z,27.90
2022-11-01T12:30:32.558Z,27.87
2022-11-01T12:31:32.560Z,27.96
2022-11-01T12:32:32.559Z,27.94
2022-11-01T12:33:32.560Z,27.88
2022-11-01T12:34:32.585Z,27.93
2022-11-01T12:35:32.563Z,27.99
2022-11-01T12:36:32.561Z,27.92
2022-11-01T12:37:32.562Z,27.92
2022-11-01T12:38:32.564Z,27.93
2022-11-01T12:39:32.564Z,27.99
2022-11-01T12:40:32.563Z,27.90
2022-11-01T12:41:32.565Z,27.82
2022-11-01T12:42:32.569Z,27.88
2022-11-01T12:43:32.567Z,27.96
2022-11-01T12:44:32.567Z,27.88
2022-11-01T12:45:32.569Z,27.96
2022-11-01T12:46:32.572Z,27.92
2022-11-01T12:47:32.571Z,27.93
2022-11-01T12:48:32.570Z,27.90
2022-11-01T12:49:32.571Z,27.92
2022-11-01T12:50:32.591Z,27.93
2022-11-01T12:51:32.573Z,27.90
2022-11-01T12:52:32.597Z,27.99
2022-11-01T12:53:32.575Z,27.90
2022-11-01T12:54:32.576Z,27.93